createdAt,value
2023-04-09T00:02:27.794Z,100822.06
2023-04-09T00:05:30.804Z,100814.66
2023-04-09T00:08:33.922Z,100816.53
2023-04-09T00:11:36.770Z,100822.59
2023-04-09T00:14:39.449Z,100824.59
2023-04-09T00:17:42.243Z,100815.34
2023-04-09T00:20:45.351Z,100827.03
2023-04-09T00:23:48.377Z,100824.81
2023-04-09T00:26:51.453Z,100830.72
2023-04-09T00:29:56.426Z,100829.66
2023-04-09T00:32:59.386Z,100833.03
2023-04-09T00:36:02.272Z,100822.38
2023-04-09T00:39:05.099Z,100841.78
2023-04-09T00:42:08.144Z,100837.00
2023-04-09T00:45:11.121Z,100827.66
2023-04-09T00:48:16.142Z,100830.03
2023-04-09T00:51:18.910Z,100835.84
2023-04-09T00:54:21.936Z,100837.50
2023-04-09T00:57:24.745Z,100840.16
2023-04-09T01:00:28.179Z,100842.19
2023-04-09T01:03:31.158Z,100837.84
2023-04-09T01:06:51.687Z,100843.09
2023-04-09T01:09:57.780Z,100837.84
2023-04-09T01:13:00.848Z,100842.63
2023-04-09T01:16:04.839Z,100835.63
2023-04-09T01:19:35.069Z,100834.09
2023-04-09T01:22:40.881Z,100828.97
2023-04-09T01:25:49.907Z,100832.09
2023-04-09T01:28:57.513Z,100836.69
2023-04-09T01:32:03.356Z,100830.59
2023-04-09T01:35:08.799Z,100834.91
2023-04-09T01:38:13.949Z,100838.91
2023-04-09T01:41:21.807Z,100830.81
2023-04-09T01:44:26.381Z,100838.06
2023-04-09T01:47:30.513Z,100836.78
2023-04-09T01:50:35.763Z,100832.69
2023-04-09T01:53:38.895Z,100832.59
2023-04-09T01:56:46.533Z,100835.28
2023-04-09T01:59:49.523Z,100832.44
2023-04-09T02:03:02.125Z,100825.22
2023-04-09T02:06:17.439Z,100837.13
2023-04-09T02:09:21.648Z,100824.72
2023-04-09T02:12:25.420Z,100833.88
2023-04-09T02:15:31.215Z,100824.63
2023-04-09T02:18:34.034Z,100827.31
2023-04-09T02:21:37.000Z,100840.66
2023-04-09T02:24:42.954Z,100834.09
2023-04-09T02:27:45.730Z,100837.50
2023-04-09T02:30:48.594Z,100842.28
2023-04-09T02:33:51.820Z,100837.94
2023-04-09T02:36:54.655Z,100837.47
2023-04-09T02:39:57.985Z,100834.56
2023-04-09T02:43:00.758Z,100834.81
2023-04-09T02:46:04.324Z,100839.91
2023-04-09T02:49:07.295Z,100842.28
2023-04-09T02:52:11.397Z,100841.09
2023-04-09T02:55:15.095Z,100842.97
2023-04-09T02:58:17.917Z,100836.44
2023-04-09T03:01:21.010Z,100833.97
2023-04-09T03:04:23.982Z,100836.53
2023-04-09T03:07:26.710Z,100842.50
2023-04-09T03:10:29.451Z,100838.41
2023-04-09T03:13:32.725Z,100842.16
2023-04-09T03:16:35.432Z,100846.47
2023-04-09T03:19:38.403Z,100840.88
2023-04-09T03:22:41.414Z,100841.59
2023-04-09T03:26:04.994Z,100838.06
2023-04-09T03:29:13.129Z,100835.38
2023-04-09T03:32:17.813Z,100830.69
2023-04-09T03:35:22.172Z,100825.44
2023-04-09T03:38:28.425Z,100830.00
2023-04-09T03:41:32.148Z,100837.25
2023-04-09T03:44:38.813Z,100830.00
2023-04-09T03:47:48.415Z,100843.31
2023-04-09T03:50:53.664Z,100839.34
2023-04-09T03:54:04.941Z,100838.75
2023-04-09T03:57:08.622Z,100838.19
2023-04-09T04:00:14.830Z,100838.88
2023-04-09T04:03:27.036Z,100832.22
2023-04-09T04:06:56.376Z,100842.00
2023-04-09T04:10:05.008Z,100841.56
2023-04-09T04:13:11.192Z,100844.13
2023-04-09T04:16:23.864Z,100849.50
2023-04-09T04:19:27.918Z,100851.03
2023-04-09T04:22:31.576Z,100856.38
2023-04-09T04:25:36.092Z,100855.00
2023-04-09T04:28:39.998Z,100858.50
2023-04-09T04:31:46.663Z,100861.78
2023-04-09T04:34:51.964Z,100859.66
2023-04-09T04:38:01.694Z,100859.81
2023-04-09T04:41:06.333Z,100868.56
2023-04-09T04:44:12.893Z,100852.44
2023-04-09T04:47:17.090Z,100860.38
2023-04-09T04:50:19.943Z,100861.31
2023-04-09T04:53:42.487Z,100859.56
2023-04-09T04:56:48.562Z,100858.88
2023-04-09T05:00:16.229Z,100862.94
2023-04-09T05:03:19.542Z,100862.75
2023-04-09T05:06:36.377Z,100867.97
2023-04-09T05:09:44.516Z,100868.66
2023-04-09T05:12:47.492Z,100868.78
2023-04-09T05:15:57.941Z,100872.19
2023-04-09T05:19:00.870Z,100868.25
2023-04-09T05:22:03.706Z,100874.53
2023-04-09T05:25:07.473Z,100864.84
2023-04-09T05:28:14.479Z,100875.47
2023-04-09T05:31:17.842Z,100874.19
2023-04-09T05:34:28.780Z,100877.22
2023-04-09T05:37:32.654Z,100884.59
2023-04-09T05:40:36.390Z,100888.47
2023-04-09T05:43:43.338Z,100888.09
2023-04-09T05:46:48.658Z,100893.38
2023-04-09T05:49:56.077Z,100887.84
2023-04-09T05:52:58.868Z,100898.88
2023-04-09T05:56:16.023Z,100898.13
2023-04-09T05:59:27.428Z,100907.50
2023-04-09T06:02:30.360Z,100912.16
2023-04-09T06:05:33.367Z,100912.88
2023-04-09T06:08:36.719Z,100922.03
2023-04-09T06:11:39.845Z,100911.34
2023-04-09T06:14:42.609Z,100913.88
2023-04-09T06:17:45.448Z,100917.63
2023-04-09T06:20:48.220Z,100918.44
2023-04-09T06:23:51.836Z,100922.16
2023-04-09T06:26:54.740Z,100922.53
2023-04-09T06:29:57.442Z,100915.28
2023-04-09T06:33:00.174Z,100920.69
2023-04-09T06:36:03.285Z,100913.66
2023-04-09T06:39:06.890Z,100909.44
2023-04-09T06:42:09.671Z,100913.28
2023-04-09T06:45:16.980Z,100913.22
2023-04-09T06:48:19.728Z,100915.78
2023-04-09T06:51:22.511Z,100913.81
2023-04-09T06:54:25.383Z,100917.22
2023-04-09T06:57:28.120Z,100925.09
2023-04-09T07:00:31.293Z,100923.25
2023-04-09T07:03:34.351Z,100934.16
2023-04-09T07:06:37.238Z,100929.59
2023-04-09T07:09:40.067Z,100935.78
2023-04-09T07:12:43.006Z,100939.94
2023-04-09T07:15:46.181Z,100939.78
2023-04-09T07:18:49.033Z,100945.50
2023-04-09T07:21:52.135Z,100944.22
2023-04-09T07:24:55.252Z,100943.91
2023-04-09T07:27:58.045Z,100948.94
2023-04-09T07:31:03.187Z,100953.78
2023-04-09T07:34:06.324Z,100950.25
2023-04-09T07:37:09.500Z,100947.34
2023-04-09T07:40:12.542Z,100953.31
2023-04-09T07:43:15.841Z,100962.63
2023-04-09T07:46:21.066Z,100959.94
2023-04-09T07:49:23.942Z,100959.56
2023-04-09T07:52:27.318Z,100960.78
2023-04-09T07:55:30.133Z,100968.47
2023-04-09T07:58:32.805Z,100976.31
2023-04-09T08:01:35.576Z,100978.00
2023-04-09T08:04:39.035Z,100983.03
2023-04-09T08:07:42.259Z,100983.91
2023-04-09T08:10:45.880Z,100989.50
2023-04-09T08:13:48.644Z,100987.28
2023-04-09T08:16:51.583Z,100986.50
2023-04-09T08:19:54.350Z,100980.00
2023-04-09T08:22:57.780Z,100990.47
2023-04-09T08:26:00.579Z,100985.16
2023-04-09T08:29:03.690Z,100983.13
2023-04-09T08:32:06.486Z,100987.06
2023-04-09T08:35:09.771Z,100990.00
2023-04-09T08:38:12.585Z,100991.44
2023-04-09T08:41:26.814Z,100993.50
2023-04-09T08:44:30.131Z,100990.75
2023-04-09T08:47:34.338Z,100998.13
2023-04-09T08:50:37.576Z,100997.56
2023-04-09T08:53:42.954Z,101005.88
2023-04-09T08:56:49.160Z,101011.13
2023-04-09T08:59:52.143Z,101009.00
2023-04-09T09:03:08.450Z,101010.91
2023-04-09T09:06:22.635Z,101010.22
2023-04-09T09:09:26.933Z,101007.81
2023-04-09T09:12:39.631Z,101007.00
2023-04-09T09:15:43.299Z,101008.34
2023-04-09T09:18:46.297Z,101012.31
2023-04-09T09:21:59.644Z,101009.75
2023-04-09T09:25:02.391Z,101011.28
2023-04-09T09:28:13.942Z,101006.72
2023-04-09T09:31:19.996Z,101010.50
2023-04-09T09:34:24.226Z,101003.16
2023-04-09T09:37:28.350Z,101000.13
2023-04-09T09:43:42.813Z,101001.69
2023-04-09T09:46:45.954Z,101010.75
2023-04-09T09:49:52.360Z,101008.19
2023-04-09T09:53:03.290Z,101007.69
2023-04-09T09:56:07.604Z,101015.03
2023-04-09T09:59:24.081Z,101018.38
2023-04-09T10:02:31.244Z,101013.41
2023-04-09T10:05:36.839Z,101018.34
2023-04-09T10:08:42.380Z,101017.31
2023-04-09T10:11:48.171Z,101015.22
2023-04-09T10:14:53.053Z,101009.88
2023-04-09T10:17:56.348Z,101003.59
2023-04-09T10:21:05.914Z,101004.34
2023-04-09T10:24:09.387Z,100995.34
2023-04-09T10:27:16.250Z,100995.28
2023-04-09T10:30:36.284Z,100989.06
2023-04-09T10:33:39.435Z,100994.50
2023-04-09T10:36:49.904Z,100986.19
2023-04-09T10:39:53.739Z,100984.66
2023-04-09T10:42:58.382Z,100989.44
2023-04-09T10:46:02.017Z,100982.72
2023-04-09T10:49:13.862Z,100977.88
2023-04-09T10:52:16.665Z,100982.44
2023-04-09T10:55:39.921Z,100986.56
2023-04-09T10:58:42.717Z,100972.72
2023-04-09T11:01:54.029Z,100975.19
2023-04-09T11:05:19.976Z,100973.78
2023-04-09T11:08:23.005Z,100974.50
2023-04-09T11:11:27.173Z,100970.59
2023-04-09T11:14:30.070Z,100972.78
2023-04-09T11:17:36.604Z,100970.28
2023-04-09T11:20:40.419Z,100972.53
2023-04-09T11:23:52.265Z,100967.91
2023-04-09T11:26:55.125Z,100980.41
2023-04-09T11:29:57.909Z,100975.94
2023-04-09T11:33:01.922Z,100967.03
2023-04-09T11:36:07.812Z,100968.19
2023-04-09T11:39:10.620Z,100963.25
2023-04-09T11:42:16.306Z,100972.56
2023-04-09T11:45:20.659Z,100965.03
2023-04-09T11:48:25.052Z,100973.78
2023-04-09T11:51:28.843Z,100973.94
2023-04-09T11:54:34.824Z,100967.88
2023-04-09T11:57:46.115Z,100959.59
2023-04-09T12:00:53.361Z,100972.88
2023-04-09T12:03:56.570Z,100964.41
2023-04-09T12:06:59.513Z,100963.72
2023-04-09T12:10:10.558Z,100978.72
2023-04-09T12:13:13.942Z,100967.72
2023-04-09T12:16:20.866Z,100972.63
2023-04-09T12:19:25.945Z,100967.28
2023-04-09T12:22:28.692Z,100962.53
2023-04-09T12:25:36.946Z,100957.94
2023-04-09T12:28:40.597Z,100964.63
2023-04-09T12:31:43.966Z,100965.13
2023-04-09T12:34:47.592Z,100960.44
2023-04-09T12:37:51.035Z,100963.72
2023-04-09T12:40:53.868Z,100959.41
2023-04-09T12:43:56.547Z,100961.22
2023-04-09T12:46:59.380Z,100954.63
2023-04-09T12:50:03.453Z,100954.66
2023-04-09T12:53:06.340Z,100956.91
2023-04-09T12:56:09.370Z,100948.63
2023-04-09T12:59:12.262Z,100952.06
2023-04-09T13:02:15.313Z,100948.03
2023-04-09T13:05:18.169Z,100940.25
2023-04-09T13:08:20.950Z,100946.75
2023-04-09T13:11:23.952Z,100948.56
2023-04-09T13:14:26.850Z,100945.78
2023-04-09T13:17:29.699Z,100951.69
2023-04-09T13:20:32.700Z,100953.19
2023-04-09T13:23:35.584Z,100950.06
2023-04-09T13:26:38.357Z,100943.25
2023-04-09T13:29:41.118Z,100944.28
2023-04-09T13:32:43.962Z,100942.94
2023-04-09T13:35:46.907Z,100930.94
2023-04-09T13:38:49.745Z,100940.75
2023-04-09T13:41:52.570Z,100928.97
2023-04-09T13:44:55.584Z,100942.03
2023-04-09T13:47:59.602Z,100940.31
2023-04-09T13:51:02.503Z,100931.66
2023-04-09T13:54:06.070Z,100941.84
2023-04-09T13:57:10.431Z,100934.94
2023-04-09T14:00:14.146Z,100924.44
2023-04-09T14:03:17.279Z,100930.50
2023-04-09T14:06:20.056Z,100913.28
2023-04-09T14:09:22.810Z,100918.16
2023-04-09T14:12:25.577Z,100917.75
2023-04-09T14:15:28.387Z,100908.34
2023-04-09T14:18:31.265Z,100918.88
2023-04-09T14:21:34.508Z,100912.66
2023-04-09T14:24:40.602Z,100910.63
2023-04-09T14:27:43.440Z,100911.66
2023-04-09T14:30:46.557Z,100912.47
2023-04-09T14:33:49.623Z,100892.38
2023-04-09T14:36:52.420Z,100902.84
2023-04-09T14:39:55.170Z,100902.91
2023-04-09T14:43:01.590Z,100894.97
2023-04-09T14:46:06.554Z,100891.63
2023-04-09T14:49:09.290Z,100900.00
2023-04-09T14:52:12.036Z,100890.63
2023-04-09T14:55:16.155Z,100890.38
2023-04-09T14:58:18.958Z,100893.63
2023-04-09T15:01:22.789Z,100899.56
2023-04-09T15:04:25.891Z,100895.34
2023-04-09T15:07:29.279Z,100893.63
2023-04-09T15:10:32.309Z,100895.47
2023-04-09T15:13:35.066Z,100890.88
2023-04-09T15:16:37.816Z,100893.94
2023-04-09T15:19:40.633Z,100886.94
2023-04-09T15:22:43.566Z,100883.16
2023-04-09T15:25:48.242Z,100877.59
2023-04-09T15:31:54.005Z,100885.50
2023-04-09T15:34:57.184Z,100881.53
2023-04-09T15:37:59.934Z,100878.25
2023-04-09T15:41:03.229Z,100883.34
2023-04-09T15:44:06.015Z,100883.16
2023-04-09T15:47:08.779Z,100880.34
2023-04-09T15:50:11.567Z,100876.75
2023-04-09T15:53:17.847Z,100887.81
2023-04-09T15:56:20.984Z,100888.59
2023-04-09T15:59:23.728Z,100886.66
2023-04-09T16:02:27.410Z,100885.72
2023-04-09T16:05:30.390Z,100885.81
2023-04-09T16:08:34.581Z,100885.28
2023-04-09T16:11:37.661Z,100893.25
2023-04-09T16:14:41.039Z,100887.84
2023-04-09T16:17:43.733Z,100888.94
2023-04-09T16:20:46.554Z,100883.91
2023-04-09T16:23:49.872Z,100885.81
2023-04-09T16:26:52.592Z,100887.19
2023-04-09T16:29:55.482Z,100884.75
2023-04-09T16:32:58.304Z,100883.00
2023-04-09T16:36:01.272Z,100882.84
2023-04-09T16:39:05.004Z,100881.34
2023-04-09T16:42:07.891Z,100883.94
2023-04-09T16:45:11.314Z,100885.69
2023-04-09T16:48:14.274Z,100888.81
2023-04-09T16:51:17.182Z,100886.38
2023-04-09T16:54:20.103Z,100888.09
2023-04-09T16:57:22.843Z,100893.53
2023-04-09T17:00:26.216Z,100874.75
2023-04-09T17:03:29.037Z,100888.72
2023-04-09T17:06:31.910Z,100885.84
2023-04-09T17:09:34.689Z,100892.75
2023-04-09T17:12:38.211Z,100885.91
2023-04-09T17:15:41.585Z,100887.63
2023-04-09T17:18:45.502Z,100893.31
2023-04-09T17:21:48.411Z,100897.47
2023-04-09T17:24:52.813Z,100887.91
2023-04-09T17:27:55.628Z,100902.44
2023-04-09T17:30:58.475Z,100902.25
2023-04-09T17:34:01.211Z,100903.84
2023-04-09T17:37:04.233Z,100902.63
2023-04-09T17:40:07.808Z,100905.25
2023-04-09T17:43:10.829Z,100904.56
2023-04-09T17:46:14.139Z,100907.47
2023-04-09T17:49:17.259Z,100912.41
2023-04-09T17:52:20.573Z,100911.63
2023-04-09T17:55:23.607Z,100914.56
2023-04-09T17:58:27.166Z,100911.19
2023-04-09T18:01:30.056Z,100917.41
2023-04-09T18:04:35.362Z,100924.56
2023-04-09T18:07:38.792Z,100928.94
2023-04-09T18:10:41.854Z,100928.03
2023-04-09T18:13:44.884Z,100916.72
2023-04-09T18:16:47.876Z,100935.31
2023-04-09T18:19:54.310Z,100929.94
2023-04-09T18:22:57.174Z,100927.28
2023-04-09T18:25:59.958Z,100935.34
2023-04-09T18:29:02.869Z,100934.84
2023-04-09T18:32:05.712Z,100931.94
2023-04-09T18:35:08.923Z,100940.25
2023-04-09T18:38:11.637Z,100944.59
2023-04-09T18:41:22.497Z,100946.47
2023-04-09T18:44:25.236Z,100942.13
2023-04-09T18:47:28.122Z,100947.63
2023-04-09T18:50:30.975Z,100943.31
2023-04-09T18:53:33.971Z,100947.72
2023-04-09T18:56:36.770Z,100960.13
2023-04-09T18:59:40.465Z,100958.84
2023-04-09T19:02:44.263Z,100963.41
2023-04-09T19:05:48.483Z,100963.75
2023-04-09T19:08:57.264Z,100968.53
2023-04-09T19:12:02.017Z,100970.31
2023-04-09T19:15:06.322Z,100966.34
2023-04-09T19:18:09.124Z,100975.19
2023-04-09T19:21:12.181Z,100976.47
2023-04-09T19:24:15.157Z,100975.41
2023-04-09T19:27:18.740Z,100975.88
2023-04-09T19:30:21.654Z,100972.72
2023-04-09T19:33:27.069Z,100980.28
2023-04-09T19:36:32.436Z,100964.63
2023-04-09T19:39:35.735Z,100973.53
2023-04-09T19:42:38.667Z,100976.34
2023-04-09T19:45:42.759Z,100975.31
2023-04-09T19:48:47.254Z,100979.81
2023-04-09T19:51:50.332Z,100971.75
2023-04-09T19:54:56.482Z,100976.63
2023-04-09T19:57:59.476Z,100981.44
2023-04-09T20:01:02.660Z,100982.09
2023-04-09T20:04:05.635Z,100986.13
2023-04-09T20:07:08.488Z,100975.69
2023-04-09T20:10:11.628Z,100983.41
2023-04-09T20:13:14.560Z,100984.34
2023-04-09T20:16:17.545Z,100979.66
2023-04-09T20:19:22.271Z,100979.56
2023-04-09T20:22:25.034Z,100979.78
2023-04-09T20:25:34.433Z,100976.28
2023-04-09T20:28:37.477Z,100982.31
2023-04-09T20:31:40.454Z,100973.91
2023-04-09T20:34:43.675Z,100973.56
2023-04-09T20:37:48.449Z,100970.50
2023-04-09T20:40:53.002Z,100974.00
2023-04-09T20:43:55.903Z,100979.84
2023-04-09T20:46:58.701Z,100981.00
2023-04-09T20:50:01.576Z,100980.00
2023-04-09T20:53:04.685Z,100971.13
2023-04-09T20:56:09.166Z,100979.41
2023-04-09T20:59:12.482Z,100981.00
2023-04-09T21:02:17.016Z,100978.38
2023-04-09T21:05:23.898Z,100972.75
2023-04-09T21:08:27.984Z,100974.97
2023-04-09T21:11:30.941Z,100975.16
2023-04-09T21:14:33.653Z,100970.75
2023-04-09T21:17:36.513Z,100972.00
2023-04-09T21:20:44.536Z,100965.06
2023-04-09T21:23:47.385Z,100971.53
2023-04-09T21:26:51.982Z,100967.88
2023-04-09T21:29:55.188Z,100962.44
2023-04-09T21:32:59.733Z,100964.22
2023-04-09T21:36:04.420Z,100969.41
2023-04-09T21:39:07.921Z,100963.66
2023-04-09T21:42:10.840Z,100975.56
2023-04-09T21:45:14.275Z,100972.31
2023-04-09T21:48:17.048Z,100966.41
2023-04-09T21:51:24.816Z,100969.13
2023-04-09T21:54:27.703Z,100966.84
2023-04-09T21:57:30.501Z,100961.97
2023-04-09T22:00:33.737Z,100985.78
2023-04-09T22:03:36.752Z,100971.84
2023-04-09T22:06:40.318Z,100979.47
2023-04-09T22:09:43.088Z,100982.56
2023-04-09T22:12:45.832Z,100977.53
2023-04-09T22:15:48.544Z,100982.88
2023-04-09T22:18:51.728Z,100985.94
2023-04-09T22:21:55.093Z,100984.59
2023-04-09T22:24:57.928Z,100987.97
2023-04-09T22:28:00.592Z,100988.78
2023-04-09T22:31:03.719Z,100978.91
2023-04-09T22:34:17.541Z,100982.19
2023-04-09T22:37:23.287Z,100988.91
2023-04-09T22:40:26.661Z,100980.59
2023-04-09T22:43:29.364Z,100983.06
2023-04-09T22:46:32.803Z,100987.88
2023-04-09T22:49:35.677Z,100980.88
2023-04-09T22:52:38.398Z,100985.41
2023-04-09T22:55:41.129Z,100989.94
2023-04-09T22:58:43.946Z,100991.59
2023-04-09T23:01:47.402Z,100986.47
2023-04-09T23:04:50.629Z,100986.22
2023-04-09T23:07:53.353Z,100986.22
2023-04-09T23:10:59.189Z,100975.78
2023-04-09T23:14:01.910Z,100983.97
2023-04-09T23:17:04.683Z,100985.31
2023-04-09T23:20:08.881Z,100977.13
2023-04-09T23:23:11.933Z,100982.59
2023-04-09T23:26:14.746Z,100976.66
2023-04-09T23:29:17.468Z,100977.91
2023-04-09T23:32:20.216Z,100977.91
2023-04-09T23:35:23.008Z,100980.16
2023-04-09T23:38:25.756Z,100983.81
2023-04-09T23:41:28.421Z,100979.31
2023-04-09T23:44:35.766Z,100982.41
2023-04-09T23:47:38.769Z,100980.69
2023-04-09T23:50:41.561Z,100976.16
2023-04-09T23:53:44.687Z,100978.34
2023-04-09T23:56:47.591Z,100962.63
2023-04-09T23:59:50.391Z,100967.78
